Terminal Aerodrome Forecast
Issued by NWS

Home | Current Version | Previous Version | Text Only | Print | Product List | Glossary On
Versions: 1 2 3 4 5 6 7 8 9 10 11 12 13 14 15
000
FTUS43 KFGF 252323
TAFTVF
TAF
KTVF 252323Z 2600/2624 31012KT P6SM VCSH SCT040 BKN060
     FM260100 33010KT P6SM SCT050
     FM260300 31007KT P6SM SKC
     FM261600 31009KT P6SM SCT050=

USA.gov is the U.S. government's official web portal to all federal, state and local government web resources and services.